Terminal Aerodrome Forecast
Issued by NWS

Home | Current Version | Previous Version | Text Only | Print | Product List | Glossary On
Versions: 1 2 3 4 5 6 7 8 9 10 11 12 13 14 15 16 17 18 19 20 21 22
000
FTUS41 KCAR 222300
TAFFVE
TAF
KFVE 222331Z 2300/2324 27025G35KT P6SM SCT025 BKN040
     FM230800 27010G20KT P6SM BKN060
     FM231500 28012G22KT P6SM SCT025 BKN035
     FM232200 30009KT P6SM SCT250=

USA.gov is the U.S. government's official web portal to all federal, state and local government web resources and services.